Whitefish, Canada
Current Conditions -  °F | °C
As of 9:00 PM on Sunday 23 Nov 2014 (Local Time) from CYSB Reporting Station
Drizzle Drizzle  
Wind Chill: 32°   Ceiling: 100
Heat Index: 39°   Visibility: 0.12mi
Dew Point: 39°   Wind: 13mph
Humidity: 100%   Direction: 160°SSE
Pressure: 29.63"   Gusts: NA
Location:  46.37°N, 81.32°W
Report Text: CYSB 240200Z 16011KT 1/8SM R22/1100FT/N -DZ FG VV001 04/04 A2963 RMK FG8 SLP047
Loading
Personal Weather Stations






























Interactive Weather Map New forecast layout! Learn more

10-Day Weather Forecast

Advertisements
Track Severe Weather on mobile